sensor_id;sensor_type;location;lat;lon;timestamp;pressure;altitude;pressure_sealevel;temperature;humidity
80321;BME280;69633;47.066;15.450;2024-03-23T00:53:50;97175.00;;;11.50;61.14
80321;BME280;69633;47.066;15.450;2024-03-23T00:56:16;97164.94;;;11.44;61.90
80321;BME280;69633;47.066;15.450;2024-03-23T00:58:41;97154.84;;;11.34;62.06
80321;BME280;69633;47.066;15.450;2024-03-23T01:01:07;97159.22;;;11.26;62.25
80321;BME280;69633;47.066;15.450;2024-03-23T01:03:32;97168.63;;;11.24;62.57
80321;BME280;69633;47.066;15.450;2024-03-23T01:06:01;97162.69;;;11.14;62.97
80321;BME280;69633;47.066;15.450;2024-03-23T01:08:27;97156.53;;;11.10;62.78
80321;BME280;69633;47.066;15.450;2024-03-23T01:10:57;97155.34;;;11.08;63.18
80321;BME280;69633;47.066;15.450;2024-03-23T01:13:23;97158.16;;;11.15;63.54
80321;BME280;69633;47.066;15.450;2024-03-23T01:15:52;97150.34;;;11.06;63.55
80321;BME280;69633;47.066;15.450;2024-03-23T01:18:19;97145.53;;;10.96;63.65
80321;BME280;69633;47.066;15.450;2024-03-23T01:20:45;97146.91;;;10.90;64.06
80321;BME280;69633;47.066;15.450;2024-03-23T01:23:11;97145.19;;;10.82;63.90
80321;BME280;69633;47.066;15.450;2024-03-23T01:25:36;97139.78;;;10.79;64.03
80321;BME280;69633;47.066;15.450;2024-03-23T01:28:02;97144.72;;;10.80;63.71
80321;BME280;69633;47.066;15.450;2024-03-23T01:30:27;97135.91;;;10.76;64.00
80321;BME280;69633;47.066;15.450;2024-03-23T01:32:53;97134.78;;;10.77;64.15
80321;BME280;69633;47.066;15.450;2024-03-23T01:35:20;97129.94;;;10.79;64.22
80321;BME280;69633;47.066;15.450;2024-03-23T01:37:45;97135.91;;;10.76;64.76
80321;BME280;69633;47.066;15.450;2024-03-23T01:40:11;97132.03;;;10.74;64.42
80321;BME280;69633;47.066;15.450;2024-03-23T01:42:39;97130.84;;;10.71;64.14
80321;BME280;69633;47.066;15.450;2024-03-23T01:45:07;97121.34;;;10.70;64.37
80321;BME280;69633;47.066;15.450;2024-03-23T01:47:33;97123.56;;;10.68;64.87
80321;BME280;69633;47.066;15.450;2024-03-23T01:49:59;97128.00;;;10.64;65.39
80321;BME280;69633;47.066;15.450;2024-03-23T01:52:27;97116.06;;;10.58;65.11
80321;BME280;69633;47.066;15.450;2024-03-23T01:54:52;97111.03;;;10.53;65.41
80321;BME280;69633;47.066;15.450;2024-03-23T01:57:20;97109.91;;;10.54;65.17
80321;BME280;69633;47.066;15.450;2024-03-23T01:59:49;97114.78;;;10.52;65.78
80321;BME280;69633;47.066;15.450;2024-03-23T02:02:18;97099.09;;;10.47;65.89
80321;BME280;69633;47.066;15.450;2024-03-23T02:04:45;97094.47;;;10.44;66.15
80321;BME280;69633;47.066;15.450;2024-03-23T02:07:12;97104.97;;;10.40;66.19
80321;BME280;69633;47.066;15.450;2024-03-23T02:09:38;97092.50;;;10.41;66.06
80321;BME280;69633;47.066;15.450;2024-03-23T02:12:05;97077.25;;;10.38;66.09
80321;BME280;69633;47.066;15.450;2024-03-23T02:14:30;97074.16;;;10.36;66.23
80321;BME280;69633;47.066;15.450;2024-03-23T02:16:58;97085.44;;;10.33;66.18
80321;BME280;69633;47.066;15.450;2024-03-23T02:19:24;97078.31;;;10.21;66.65
80321;BME280;69633;47.066;15.450;2024-03-23T02:21:50;97072.47;;;10.15;66.64
80321;BME280;69633;47.066;15.450;2024-03-23T02:24:17;97066.16;;;10.08;66.48
80321;BME280;69633;47.066;15.450;2024-03-23T02:26:43;97063.41;;;10.04;67.31
80321;BME280;69633;47.066;15.450;2024-03-23T02:29:08;97059.25;;;9.91;67.57
80321;BME280;69633;47.066;15.450;2024-03-23T02:31:39;97061.47;;;9.89;67.54
80321;BME280;69633;47.066;15.450;2024-03-23T02:34:04;97056.81;;;9.86;67.41
80321;BME280;69633;47.066;15.450;2024-03-23T02:36:30;97054.53;;;9.85;67.63
80321;BME280;69633;47.066;15.450;2024-03-23T02:38:56;97041.00;;;9.90;67.35
80321;BME280;69633;47.066;15.450;2024-03-23T02:41:21;97043.56;;;9.86;67.53
80321;BME280;69633;47.066;15.450;2024-03-23T02:43:51;97045.78;;;9.84;67.43
80321;BME280;69633;47.066;15.450;2024-03-23T02:46:17;97050.00;;;9.85;67.66
80321;BME280;69633;47.066;15.450;2024-03-23T02:48:43;97042.81;;;9.86;67.19
80321;BME280;69633;47.066;15.450;2024-03-23T02:51:09;97053.75;;;9.84;67.50
80321;BME280;69633;47.066;15.450;2024-03-23T02:53:34;97047.75;;;9.87;66.66
80321;BME280;69633;47.066;15.450;2024-03-23T02:56:01;97038.53;;;9.81;66.74
80321;BME280;69633;47.066;15.450;2024-03-23T02:58:28;97038.53;;;9.81;66.54
80321;BME280;69633;47.066;15.450;2024-03-23T03:00:55;97040.28;;;9.89;66.44
80321;BME280;69633;47.066;15.450;2024-03-23T03:03:20;97031.53;;;9.89;66.31
80321;BME280;69633;47.066;15.450;2024-03-23T03:05:46;97029.22;;;9.87;66.12
80321;BME280;69633;47.066;15.450;2024-03-23T03:08:11;97031.75;;;9.84;66.51
80321;BME280;69633;47.066;15.450;2024-03-23T03:10:37;97029.59;;;9.74;66.90
80321;BME280;69633;47.066;15.450;2024-03-23T03:13:03;97029.72;;;9.65;66.97
80321;BME280;69633;47.066;15.450;2024-03-23T03:15:30;97022.84;;;9.64;67.61
80321;BME280;69633;47.066;15.450;2024-03-23T03:17:55;97026.75;;;9.66;67.17
80321;BME280;69633;47.066;15.450;2024-03-23T03:20:21;97014.91;;;9.64;67.41
80321;BME280;69633;47.066;15.450;2024-03-23T03:22:48;97011.16;;;9.65;66.90
80321;BME280;69633;47.066;15.450;2024-03-23T03:25:14;97016.91;;;9.67;67.43
80321;BME280;69633;47.066;15.450;2024-03-23T03:27:43;97011.63;;;9.67;66.76
80321;BME280;69633;47.066;15.450;2024-03-23T03:30:09;97016.81;;;9.63;67.31
80321;BME280;69633;47.066;15.450;2024-03-23T03:32:35;97021.13;;;9.56;67.54
80321;BME280;69633;47.066;15.450;2024-03-23T03:35:00;97017.59;;;9.52;67.52
80321;BME280;69633;47.066;15.450;2024-03-23T03:37:27;97015.38;;;9.42;67.53
80321;BME280;69633;47.066;15.450;2024-03-23T03:39:53;97015.28;;;9.38;68.06
80321;BME280;69633;47.066;15.450;2024-03-23T03:42:19;97019.38;;;9.36;68.10
80321;BME280;69633;47.066;15.450;2024-03-23T03:44:44;97019.59;;;9.31;68.35
80321;BME280;69633;47.066;15.450;2024-03-23T03:47:09;97011.34;;;9.32;68.41
80321;BME280;69633;47.066;15.450;2024-03-23T03:49:35;97001.31;;;9.26;68.68
80321;BME280;69633;47.066;15.450;2024-03-23T03:52:02;97001.31;;;9.26;68.54
80321;BME280;69633;47.066;15.450;2024-03-23T03:54:28;97002.81;;;9.27;68.37
80321;BME280;69633;47.066;15.450;2024-03-23T03:56:54;97005.72;;;9.21;68.55
80321;BME280;69633;47.066;15.450;2024-03-23T03:59:19;96998.88;;;9.20;69.25
80321;BME280;69633;47.066;15.450;2024-03-23T04:01:47;96996.88;;;9.17;68.89
80321;BME280;69633;47.066;15.450;2024-03-23T04:04:12;96990.16;;;9.32;68.56
80321;BME280;69633;47.066;15.450;2024-03-23T04:06:39;96991.13;;;9.40;68.25
80321;BME280;69633;47.066;15.450;2024-03-23T04:09:04;96992.91;;;9.36;68.03
80321;BME280;69633;47.066;15.450;2024-03-23T04:11:31;96983.97;;;9.28;67.51
80321;BME280;69633;47.066;15.450;2024-03-23T04:14:13;96979.25;;;9.21;67.67
80321;BME280;69633;47.066;15.450;2024-03-23T04:16:39;96975.72;;;9.17;67.97
80321;BME280;69633;47.066;15.450;2024-03-23T04:19:05;96973.06;;;9.17;67.67
80321;BME280;69633;47.066;15.450;2024-03-23T04:21:32;96974.59;;;9.18;67.91
80321;BME280;69633;47.066;15.450;2024-03-23T04:23:57;96973.06;;;9.17;67.94
80321;BME280;69633;47.066;15.450;2024-03-23T04:26:24;96977.91;;;9.15;68.30
80321;BME280;69633;47.066;15.450;2024-03-23T04:28:50;96976.59;;;9.09;68.20
80321;BME280;69633;47.066;15.450;2024-03-23T04:31:15;96970.88;;;8.95;68.95
80321;BME280;69633;47.066;15.450;2024-03-23T04:33:41;96973.06;;;8.93;69.14
80321;BME280;69633;47.066;15.450;2024-03-23T04:36:06;96976.06;;;8.92;68.69
80321;BME280;69633;47.066;15.450;2024-03-23T04:38:34;96979.03;;;8.90;68.66
80321;BME280;69633;47.066;15.450;2024-03-23T04:41:02;96967.66;;;8.90;68.30
80321;BME280;69633;47.066;15.450;2024-03-23T04:43:28;96959.28;;;8.88;68.61
80321;BME280;69633;47.066;15.450;2024-03-23T04:45:54;96949.69;;;8.95;68.43
80321;BME280;69633;47.066;15.450;2024-03-23T04:48:21;96952.09;;;9.00;68.53
80321;BME280;69633;47.066;15.450;2024-03-23T04:50:48;96952.56;;;9.14;67.86
80321;BME280;69633;47.066;15.450;2024-03-23T04:53:15;96947.47;;;9.21;67.67
80321;BME280;69633;47.066;15.450;2024-03-23T04:55:42;96949.88;;;9.27;67.31
80321;BME280;69633;47.066;15.450;2024-03-23T04:58:07;96947.88;;;9.23;67.55
80321;BME280;69633;47.066;15.450;2024-03-23T05:00:34;96947.78;;;9.32;67.17
80321;BME280;69633;47.066;15.450;2024-03-23T05:03:01;96942.00;;;9.42;67.18
80321;BME280;69633;47.066;15.450;2024-03-23T05:05:26;96946.97;;;9.56;66.87
80321;BME280;69633;47.066;15.450;2024-03-23T05:07:52;96943.81;;;9.66;66.25
80321;BME280;69633;47.066;15.450;2024-03-23T05:10:18;96940.09;;;9.55;66.62
80321;BME280;69633;47.066;15.450;2024-03-23T05:12:44;96944.34;;;9.44;67.03
80321;BME280;69633;47.066;15.450;2024-03-23T05:15:10;96936.59;;;9.39;67.01
80321;BME280;69633;47.066;15.450;2024-03-23T05:17:36;96928.88;;;9.46;66.77
80321;BME280;69633;47.066;15.450;2024-03-23T05:20:04;96927.09;;;9.50;66.53
80321;BME280;69633;47.066;15.450;2024-03-23T05:22:35;96923.38;;;9.39;66.61
80321;BME280;69633;47.066;15.450;2024-03-23T05:25:01;96917.16;;;9.47;66.97
80321;BME280;69633;47.066;15.450;2024-03-23T05:27:32;96922.44;;;9.59;66.57
80321;BME280;69633;47.066;15.450;2024-03-23T05:29:58;96928.06;;;9.57;66.02
80321;BME280;69633;47.066;15.450;2024-03-23T05:32:25;96919.97;;;9.66;66.71
80321;BME280;69633;47.066;15.450;2024-03-23T05:34:53;96934.47;;;9.84;66.04
80321;BME280;69633;47.066;15.450;2024-03-23T05:37:23;96930.50;;;10.06;65.25
80321;BME280;69633;47.066;15.450;2024-03-23T05:39:49;96921.88;;;10.09;65.23
80321;BME280;69633;47.066;15.450;2024-03-23T05:42:18;96925.94;;;10.18;64.59
80321;BME280;69633;47.066;15.450;2024-03-23T05:44:44;96911.66;;;10.23;64.54
80321;BME280;69633;47.066;15.450;2024-03-23T05:47:11;96913.88;;;10.21;64.09
80321;BME280;69633;47.066;15.450;2024-03-23T05:49:38;96908.47;;;10.17;64.58
80321;BME280;69633;47.066;15.450;2024-03-23T05:52:04;96898.81;;;10.25;64.98
80321;BME280;69633;47.066;15.450;2024-03-23T05:54:30;96907.47;;;10.38;64.48
80321;BME280;69633;47.066;15.450;2024-03-23T05:56:55;96910.72;;;10.47;63.79
80321;BME280;69633;47.066;15.450;2024-03-23T05:59:21;96903.03;;;10.42;63.69
80321;BME280;69633;47.066;15.450;2024-03-23T06:01:48;96905.50;;;10.50;63.51
80321;BME280;69633;47.066;15.450;2024-03-23T06:04:14;96904.22;;;10.60;63.31
80321;BME280;69633;47.066;15.450;2024-03-23T06:06:40;96912.25;;;10.79;63.72
80321;BME280;69633;47.066;15.450;2024-03-23T06:09:07;96911.47;;;10.79;64.20
80321;BME280;69633;47.066;15.450;2024-03-23T06:11:34;96904.25;;;10.95;63.88
80321;BME280;69633;47.066;15.450;2024-03-23T06:13:59;96901.41;;;11.03;63.84
80321;BME280;69633;47.066;15.450;2024-03-23T06:16:26;96897.91;;;10.99;63.74
80321;BME280;69633;47.066;15.450;2024-03-23T06:18:54;96896.25;;;11.10;63.11
80321;BME280;69633;47.066;15.450;2024-03-23T06:21:43;96896.00;;;11.15;63.21
80321;BME280;69633;47.066;15.450;2024-03-23T06:24:11;96890.06;;;11.41;61.95
80321;BME280;69633;47.066;15.450;2024-03-23T06:26:41;96894.06;;;11.51;61.72
80321;BME280;69633;47.066;15.450;2024-03-23T06:29:08;96888.06;;;11.54;62.40
80321;BME280;69633;47.066;15.450;2024-03-23T06:31:33;96884.13;;;11.67;61.63
80321;BME280;69633;47.066;15.450;2024-03-23T06:34:00;96888.47;;;11.75;61.68
80321;BME280;69633;47.066;15.450;2024-03-23T06:36:26;96885.94;;;11.82;61.20
80321;BME280;69633;47.066;15.450;2024-03-23T06:38:53;96887.34;;;11.95;60.78
80321;BME280;69633;47.066;15.450;2024-03-23T06:41:19;96887.59;;;12.09;60.73
80321;BME280;69633;47.066;15.450;2024-03-23T06:43:45;96885.34;;;12.11;60.67
80321;BME280;69633;47.066;15.450;2024-03-23T06:46:10;96878.63;;;12.18;60.65
80321;BME280;69633;47.066;15.450;2024-03-23T06:48:35;96885.16;;;12.24;60.02
80321;BME280;69633;47.066;15.450;2024-03-23T06:51:01;96880.34;;;12.29;60.02
80321;BME280;69633;47.066;15.450;2024-03-23T06:53:26;96881.56;;;12.13;60.17
80321;BME280;69633;47.066;15.450;2024-03-23T06:55:53;96874.94;;;12.26;59.91
80321;BME280;69633;47.066;15.450;2024-03-23T06:58:24;96868.97;;;12.32;60.11
80321;BME280;69633;47.066;15.450;2024-03-23T07:00:50;96868.19;;;12.32;59.93
80321;BME280;69633;47.066;15.450;2024-03-23T07:03:19;96867.59;;;12.42;59.50
80321;BME280;69633;47.066;15.450;2024-03-23T07:05:44;96867.41;;;12.54;59.01
80321;BME280;69633;47.066;15.450;2024-03-23T07:08:11;96863.13;;;12.72;58.24
80321;BME280;69633;47.066;15.450;2024-03-23T07:10:42;96873.63;;;12.88;58.22
80321;BME280;69633;47.066;15.450;2024-03-23T07:13:07;96857.78;;;12.98;57.01
80321;BME280;69633;47.066;15.450;2024-03-23T07:15:34;96859.38;;;13.03;55.29
80321;BME280;69633;47.066;15.450;2024-03-23T07:17:59;96858.41;;;13.15;54.91
80321;BME280;69633;47.066;15.450;2024-03-23T07:20:25;96853.69;;;13.31;54.51
80321;BME280;69633;47.066;15.450;2024-03-23T07:22:52;96864.44;;;13.38;53.93
80321;BME280;69633;47.066;15.450;2024-03-23T07:25:17;96850.47;;;13.51;53.46
80321;BME280;69633;47.066;15.450;2024-03-23T07:27:49;96850.25;;;13.64;52.93
80321;BME280;69633;47.066;15.450;2024-03-23T07:30:16;96853.41;;;13.76;52.89
80321;BME280;69633;47.066;15.450;2024-03-23T07:32:44;96852.66;;;13.76;52.50
80321;BME280;69633;47.066;15.450;2024-03-23T07:35:09;96854.94;;;13.77;52.54
80321;BME280;69633;47.066;15.450;2024-03-23T07:37:35;96848.69;;;13.63;55.26
80321;BME280;69633;47.066;15.450;2024-03-23T07:40:02;96852.22;;;13.37;56.15
80321;BME280;69633;47.066;15.450;2024-03-23T07:42:28;96838.66;;;13.49;56.57
80321;BME280;69633;47.066;15.450;2024-03-23T07:44:56;96841.16;;;13.68;55.59
80321;BME280;69633;47.066;15.450;2024-03-23T07:47:22;96844.59;;;13.72;55.75
80321;BME280;69633;47.066;15.450;2024-03-23T07:49:47;96840.41;;;13.71;56.20
80321;BME280;69633;47.066;15.450;2024-03-23T07:52:13;96845.97;;;13.92;55.50
80321;BME280;69633;47.066;15.450;2024-03-23T07:54:40;96847.38;;;13.79;55.60
80321;BME280;69633;47.066;15.450;2024-03-23T07:57:06;96842.63;;;14.02;55.17
80321;BME280;69633;47.066;15.450;2024-03-23T07:59:33;96846.84;;;14.07;54.92
80321;BME280;69633;47.066;15.450;2024-03-23T08:02:00;96843.50;;;14.17;54.95
80321;BME280;69633;47.066;15.450;2024-03-23T08:04:28;96836.31;;;14.25;54.39
80321;BME280;69633;47.066;15.450;2024-03-23T08:06:54;96833.34;;;14.33;54.25
80321;BME280;69633;47.066;15.450;2024-03-23T08:09:20;96831.34;;;14.20;54.53
80321;BME280;69633;47.066;15.450;2024-03-23T08:11:47;96829.50;;;14.27;54.43
80321;BME280;69633;47.066;15.450;2024-03-23T08:14:12;96825.63;;;14.21;54.82
80321;BME280;69633;47.066;15.450;2024-03-23T08:16:38;96831.91;;;13.99;55.03
80321;BME280;69633;47.066;15.450;2024-03-23T08:19:03;96828.53;;;14.02;55.51
80321;BME280;69633;47.066;15.450;2024-03-23T08:21:30;96816.94;;;13.87;55.82
80321;BME280;69633;47.066;15.450;2024-03-23T08:23:57;96812.41;;;13.91;55.87
80321;BME280;69633;47.066;15.450;2024-03-23T08:26:23;96813.72;;;14.08;55.96
80321;BME280;69633;47.066;15.450;2024-03-23T08:28:50;96806.53;;;14.16;55.52
80321;BME280;69633;47.066;15.450;2024-03-23T08:31:15;96803.13;;;14.19;54.90
80321;BME280;69633;47.066;15.450;2024-03-23T08:33:41;96803.59;;;14.31;54.67
80321;BME280;69633;47.066;15.450;2024-03-23T08:36:10;96805.44;;;14.20;55.46
80321;BME280;69633;47.066;15.450;2024-03-23T08:38:41;96792.97;;;14.35;55.24
80321;BME280;69633;47.066;15.450;2024-03-23T08:41:10;96792.25;;;14.38;55.15
80321;BME280;69633;47.066;15.450;2024-03-23T08:43:39;96786.91;;;14.38;55.20
80321;BME280;69633;47.066;15.450;2024-03-23T08:46:12;96783.13;;;14.46;55.09
80321;BME280;69633;47.066;15.450;2024-03-23T08:51:23;96782.00;;;14.47;54.41
80321;BME280;69633;47.066;15.450;2024-03-23T08:53:50;96781.97;;;14.43;54.46
80321;BME280;69633;47.066;15.450;2024-03-23T08:56:17;96782.00;;;14.47;55.16
80321;BME280;69633;47.066;15.450;2024-03-23T08:58:42;96773.72;;;14.70;54.53
80321;BME280;69633;47.066;15.450;2024-03-23T09:01:08;96778.50;;;15.12;53.30
80321;BME280;69633;47.066;15.450;2024-03-23T09:03:40;96766.09;;;15.76;52.12
80321;BME280;69633;47.066;15.450;2024-03-23T09:06:11;96755.03;;;16.06;50.63
80321;BME280;69633;47.066;15.450;2024-03-23T09:08:38;96748.53;;;16.07;50.02
80321;BME280;69633;47.066;15.450;2024-03-23T09:11:08;96739.69;;;16.45;49.46
80321;BME280;69633;47.066;15.450;2024-03-23T09:13:35;96736.28;;;16.20;49.86
80321;BME280;69633;47.066;15.450;2024-03-23T09:16:01;96730.09;;;16.69;49.24
80321;BME280;69633;47.066;15.450;2024-03-23T09:18:27;96729.84;;;17.25;47.89
80321;BME280;69633;47.066;15.450;2024-03-23T09:20:52;96716.66;;;17.52;47.59
80321;BME280;69633;47.066;15.450;2024-03-23T09:23:21;96717.75;;;16.92;47.65
80321;BME280;69633;47.066;15.450;2024-03-23T09:25:47;96714.78;;;16.66;49.24
80321;BME280;69633;47.066;15.450;2024-03-23T09:28:13;96710.22;;;16.63;49.16
80321;BME280;69633;47.066;15.450;2024-03-23T09:30:39;96712.06;;;16.80;47.86
80321;BME280;69633;47.066;15.450;2024-03-23T09:33:11;96698.72;;;16.62;47.27
80321;BME280;69633;47.066;15.450;2024-03-23T09:35:41;96698.63;;;16.90;46.86
80321;BME280;69633;47.066;15.450;2024-03-23T09:38:08;96696.81;;;17.43;45.22
80321;BME280;69633;47.066;15.450;2024-03-23T09:40:44;96689.03;;;17.55;44.89
80321;BME280;69633;47.066;15.450;2024-03-23T09:43:20;96682.00;;;18.20;42.45
80321;BME280;69633;47.066;15.450;2024-03-23T09:45:48;96679.53;;;17.99;43.37
80321;BME280;69633;47.066;15.450;2024-03-23T09:48:15;96680.88;;;18.21;42.77
80321;BME280;69633;47.066;15.450;2024-03-23T09:50:44;96681.78;;;18.04;42.57
80321;BME280;69633;47.066;15.450;2024-03-23T09:53:13;96665.28;;;18.05;43.45
80321;BME280;69633;47.066;15.450;2024-03-23T09:55:42;96663.28;;;18.13;42.97
80321;BME280;69633;47.066;15.450;2024-03-23T09:58:08;96665.59;;;18.14;43.97
80321;BME280;69633;47.066;15.450;2024-03-23T10:00:37;96656.38;;;18.12;44.11
80321;BME280;69633;47.066;15.450;2024-03-23T10:03:03;96650.94;;;17.78;45.02
80321;BME280;69633;47.066;15.450;2024-03-23T10:05:30;96653.50;;;17.96;44.26
80321;BME280;69633;47.066;15.450;2024-03-23T10:10:42;96651.19;;;17.94;42.81
80321;BME280;69633;47.066;15.450;2024-03-23T10:13:08;96642.69;;;18.03;43.07
80321;BME280;69633;47.066;15.450;2024-03-23T10:15:39;96630.47;;;18.32;42.52
80321;BME280;69633;47.066;15.450;2024-03-23T10:18:20;96628.22;;;18.27;42.23
80321;BME280;69633;47.066;15.450;2024-03-23T10:21:13;96626.63;;;17.96;43.62
80321;BME280;69633;47.066;15.450;2024-03-23T10:23:41;96632.63;;;17.69;44.01
80321;BME280;69633;47.066;15.450;2024-03-23T10:26:18;96621.38;;;17.81;44.12
80321;BME280;69633;47.066;15.450;2024-03-23T10:29:03;96616.56;;;18.07;43.72
80321;BME280;69633;47.066;15.450;2024-03-23T10:31:39;96621.56;;;18.39;42.88
80321;BME280;69633;47.066;15.450;2024-03-23T10:34:06;96606.78;;;18.57;43.04
80321;BME280;69633;47.066;15.450;2024-03-23T10:36:35;96609.25;;;18.41;43.61
80321;BME280;69633;47.066;15.450;2024-03-23T10:39:05;96599.63;;;18.10;44.21
80321;BME280;69633;47.066;15.450;2024-03-23T10:41:37;96604.81;;;17.90;44.38
80321;BME280;69633;47.066;15.450;2024-03-23T10:44:04;96606.13;;;17.71;45.12
80321;BME280;69633;47.066;15.450;2024-03-23T10:46:30;96603.25;;;17.93;45.05
80321;BME280;69633;47.066;15.450;2024-03-23T10:48:57;96602.50;;;18.26;44.67
80321;BME280;69633;47.066;15.450;2024-03-23T10:51:24;96592.28;;;18.48;44.41
80321;BME280;69633;47.066;15.450;2024-03-23T10:53:52;96588.25;;;18.66;42.58
80321;BME280;69633;47.066;15.450;2024-03-23T10:56:19;96581.84;;;18.83;42.06
80321;BME280;69633;47.066;15.450;2024-03-23T10:58:47;96574.94;;;18.82;41.93
80321;BME280;69633;47.066;15.450;2024-03-23T11:01:15;96570.88;;;18.98;41.41
80321;BME280;69633;47.066;15.450;2024-03-23T11:03:46;96565.06;;;19.03;41.40
80321;BME280;69633;47.066;15.450;2024-03-23T11:06:38;96559.13;;;18.88;41.87
80321;BME280;69633;47.066;15.450;2024-03-23T11:14:43;96528.63;;;19.21;40.73
80321;BME280;69633;47.066;15.450;2024-03-23T11:17:12;96515.53;;;19.23;40.69
80321;BME280;69633;47.066;15.450;2024-03-23T11:19:42;96506.81;;;19.16;39.87
80321;BME280;69633;47.066;15.450;2024-03-23T11:22:08;96502.06;;;19.23;40.13
80321;BME280;69633;47.066;15.450;2024-03-23T11:24:36;96501.56;;;19.32;39.43
80321;BME280;69633;47.066;15.450;2024-03-23T11:27:15;96481.41;;;19.63;39.62
80321;BME280;69633;47.066;15.450;2024-03-23T11:29:41;96482.19;;;19.64;39.93
80321;BME280;69633;47.066;15.450;2024-03-23T11:32:09;96480.31;;;19.81;39.65
80321;BME280;69633;47.066;15.450;2024-03-23T11:34:38;96471.00;;;19.85;39.91
80321;BME280;69633;47.066;15.450;2024-03-23T11:37:04;96475.47;;;20.11;40.17
80321;BME280;69633;47.066;15.450;2024-03-23T11:39:30;96459.13;;;20.38;38.91
80321;BME280;69633;47.066;15.450;2024-03-23T11:41:57;96458.81;;;20.52;39.09
80321;BME280;69633;47.066;15.450;2024-03-23T11:44:26;96449.03;;;20.58;39.20
80321;BME280;69633;47.066;15.450;2024-03-23T11:46:53;96440.69;;;20.37;39.78
80321;BME280;69633;47.066;15.450;2024-03-23T11:49:23;96437.75;;;20.31;39.24
80321;BME280;69633;47.066;15.450;2024-03-23T11:51:49;96437.19;;;20.20;39.19
80321;BME280;69633;47.066;15.450;2024-03-23T11:54:16;96436.41;;;20.55;39.23
80321;BME280;69633;47.066;15.450;2024-03-23T11:56:57;96426.44;;;21.01;38.84
80321;BME280;69633;47.066;15.450;2024-03-23T11:59:41;96415.56;;;21.49;38.00
80321;BME280;69633;47.066;15.450;2024-03-23T12:02:11;96415.56;;;21.49;37.96
80321;BME280;69633;47.066;15.450;2024-03-23T12:04:39;96405.25;;;21.60;38.14
80321;BME280;69633;47.066;15.450;2024-03-23T12:07:14;96401.66;;;22.05;37.46
80321;BME280;69633;47.066;15.450;2024-03-23T12:09:41;96397.16;;;22.14;37.25
80321;BME280;69633;47.066;15.450;2024-03-23T12:12:17;96388.41;;;22.23;37.50
80321;BME280;69633;47.066;15.450;2024-03-23T12:15:01;96378.09;;;22.43;37.03
80321;BME280;69633;47.066;15.450;2024-03-23T12:17:27;96373.38;;;22.22;37.33
80321;BME280;69633;47.066;15.450;2024-03-23T12:19:54;96372.25;;;21.82;37.44
80321;BME280;69633;47.066;15.450;2024-03-23T12:22:21;96369.59;;;21.65;37.93
80321;BME280;69633;47.066;15.450;2024-03-23T12:24:47;96364.91;;;21.95;37.75
80321;BME280;69633;47.066;15.450;2024-03-23T12:27:14;96364.81;;;22.49;36.67
80321;BME280;69633;47.066;15.450;2024-03-23T12:29:40;96353.94;;;22.61;36.44
80321;BME280;69633;47.066;15.450;2024-03-23T12:32:07;96347.69;;;22.52;36.72
80321;BME280;69633;47.066;15.450;2024-03-23T12:34:33;96344.69;;;22.37;36.57
80321;BME280;69633;47.066;15.450;2024-03-23T12:36:58;96334.94;;;22.52;36.12
80321;BME280;69633;47.066;15.450;2024-03-23T12:39:24;96337.53;;;22.56;35.85
80321;BME280;69633;47.066;15.450;2024-03-23T12:41:50;96332.00;;;22.59;36.51
80321;BME280;69633;47.066;15.450;2024-03-23T12:44:24;96322.56;;;22.77;35.81
80321;BME280;69633;47.066;15.450;2024-03-23T12:46:49;96316.09;;;22.96;35.21
80321;BME280;69633;47.066;15.450;2024-03-23T12:49:16;96326.44;;;23.10;33.40
80321;BME280;69633;47.066;15.450;2024-03-23T12:51:53;96315.63;;;23.32;32.51
80321;BME280;69633;47.066;15.450;2024-03-23T12:54:19;96317.94;;;23.64;34.14
80321;BME280;69633;47.066;15.450;2024-03-23T12:56:45;96320.16;;;24.18;33.19
80321;BME280;69633;47.066;15.450;2024-03-23T12:59:12;96320.81;;;24.40;32.82
80321;BME280;69633;47.066;15.450;2024-03-23T13:01:42;96304.94;;;24.30;32.76
80321;BME280;69633;47.066;15.450;2024-03-23T13:04:08;96306.69;;;24.73;32.17
80321;BME280;69633;47.066;15.450;2024-03-23T13:06:34;96294.66;;;25.19;31.72
80321;BME280;69633;47.066;15.450;2024-03-23T13:09:03;96290.94;;;25.49;30.39
80321;BME280;69633;47.066;15.450;2024-03-23T13:11:30;96291.63;;;25.17;30.68
80321;BME280;69633;47.066;15.450;2024-03-23T13:13:55;96278.34;;;24.65;30.86
80321;BME280;69633;47.066;15.450;2024-03-23T13:16:22;96278.97;;;24.87;31.32
80321;BME280;69633;47.066;15.450;2024-03-23T13:18:48;96278.59;;;25.39;30.66
80321;BME280;69633;47.066;15.450;2024-03-23T13:21:13;96276.19;;;26.25;29.52
80321;BME280;69633;47.066;15.450;2024-03-23T13:23:38;96258.81;;;27.23;28.38
80321;BME280;69633;47.066;15.450;2024-03-23T13:26:08;96262.56;;;27.11;28.25
80321;BME280;69633;47.066;15.450;2024-03-23T13:28:34;96260.19;;;27.04;27.76
80321;BME280;69633;47.066;15.450;2024-03-23T13:31:01;96249.41;;;27.24;27.25
80321;BME280;69633;47.066;15.450;2024-03-23T13:33:29;96246.50;;;27.72;27.13
80321;BME280;69633;47.066;15.450;2024-03-23T13:35:55;96242.41;;;28.52;26.54
80321;BME280;69633;47.066;15.450;2024-03-23T13:38:22;96240.25;;;28.21;26.14
80321;BME280;69633;47.066;15.450;2024-03-23T13:40:55;96235.91;;;28.69;25.63
80321;BME280;69633;47.066;15.450;2024-03-23T13:43:22;96237.75;;;28.78;25.46
80321;BME280;69633;47.066;15.450;2024-03-23T13:45:49;96228.16;;;28.88;25.38
80321;BME280;69633;47.066;15.450;2024-03-23T13:48:16;96227.94;;;29.17;25.45
80321;BME280;69633;47.066;15.450;2024-03-23T13:50:43;96219.44;;;28.64;25.05
80321;BME280;69633;47.066;15.450;2024-03-23T13:53:09;96220.47;;;27.12;25.73
80321;BME280;69633;47.066;15.450;2024-03-23T13:55:35;96229.59;;;26.71;27.05
80321;BME280;69633;47.066;15.450;2024-03-23T13:58:01;96237.59;;;26.03;28.48